createdAt,value
2023-01-22T00:02:28.101Z,14.58
2023-01-22T00:05:01.659Z,17.82
2023-01-22T00:07:35.056Z,11.50
2023-01-22T00:10:10.420Z,19.60
2023-01-22T00:12:44.360Z,18.30
2023-01-22T00:15:19.223Z,11.03
2023-01-22T00:17:53.821Z,21.52
2023-01-22T00:20:27.349Z,12.23
2023-01-22T00:23:00.953Z,14.58
2023-01-22T00:25:34.553Z,17.02
2023-01-22T00:28:08.190Z,11.75
2023-01-22T00:30:41.852Z,18.92
2023-01-22T00:33:15.195Z,19.82
2023-01-22T00:35:48.704Z,17.23
2023-01-22T00:38:22.296Z,17.02
2023-01-22T00:40:55.571Z,19.35
2023-01-22T00:43:29.021Z,15.45
2023-01-22T00:46:03.112Z,16.75
2023-01-22T00:48:37.005Z,17.75
2023-01-22T00:51:12.641Z,18.30
2023-01-22T00:53:46.489Z,15.30
2023-01-22T00:56:20.157Z,16.27
2023-01-22T00:58:53.668Z,13.35
2023-01-22T01:01:27.237Z,16.42
2023-01-22T01:04:00.686Z,21.68
2023-01-22T01:06:34.145Z,15.88
2023-01-22T01:09:07.680Z,16.80
2023-01-22T01:11:41.554Z,20.52
2023-01-22T01:14:14.914Z,18.42
2023-01-22T01:16:49.816Z,17.48
2023-01-22T01:19:23.532Z,18.15
2023-01-22T01:21:57.010Z,16.62
2023-01-22T01:24:30.671Z,13.20
2023-01-22T01:27:04.187Z,16.55
2023-01-22T01:29:37.225Z,14.38
2023-01-22T01:32:10.751Z,18.02
2023-01-22T01:34:45.728Z,21.57
2023-01-22T01:37:19.231Z,15.10
2023-01-22T01:39:53.348Z,20.48
2023-01-22T01:42:29.632Z,13.62
2023-01-22T01:45:21.778Z,16.97
2023-01-22T01:47:58.906Z,14.70
2023-01-22T01:50:32.759Z,15.50
2023-01-22T01:53:07.479Z,14.75
2023-01-22T01:55:42.988Z,19.30
2023-01-22T01:58:20.547Z,19.70
2023-01-22T02:00:57.551Z,12.25
2023-01-22T02:03:32.072Z,14.93
2023-01-22T02:06:06.280Z,18.07
2023-01-22T02:08:39.838Z,14.63
2023-01-22T02:11:13.439Z,21.20
2023-01-22T02:13:51.484Z,20.23
2023-01-22T02:16:26.071Z,18.07
2023-01-22T02:19:00.965Z,14.68
2023-01-22T02:21:38.498Z,16.48
2023-01-22T02:24:14.303Z,17.32
2023-01-22T02:26:48.235Z,18.20
2023-01-22T02:29:23.228Z,23.47
2023-01-22T02:31:56.701Z,16.20
2023-01-22T02:34:30.397Z,16.20
2023-01-22T02:37:05.424Z,18.07
2023-01-22T02:39:38.698Z,17.70
2023-01-22T02:42:13.178Z,17.15
2023-01-22T02:44:47.255Z,17.15
2023-01-22T02:47:20.994Z,19.27
2023-01-22T02:49:54.462Z,21.80
2023-01-22T02:52:27.982Z,18.80
2023-01-22T02:55:01.349Z,17.35
2023-01-22T02:57:34.756Z,20.40
2023-01-22T03:00:11.177Z,14.55
2023-01-22T03:05:18.854Z,17.52
2023-01-22T03:07:53.246Z,17.65
2023-01-22T03:10:26.482Z,14.07
2023-01-22T03:13:17.203Z,18.55
2023-01-22T03:16:08.473Z,22.67
2023-01-22T03:18:59.720Z,21.23
2023-01-22T03:21:33.358Z,17.37
2023-01-22T03:24:08.524Z,21.07
2023-01-22T03:26:43.574Z,15.72
2023-01-22T03:29:17.156Z,22.62
2023-01-22T03:31:52.199Z,13.62
2023-01-22T03:34:27.063Z,15.30
2023-01-22T03:37:01.219Z,12.53
2023-01-22T03:39:36.073Z,19.30
2023-01-22T03:42:09.723Z,21.23
2023-01-22T03:44:44.242Z,20.10
2023-01-22T03:47:19.606Z,17.52
2023-01-22T03:49:53.042Z,18.52
2023-01-22T03:52:26.634Z,12.75
2023-01-22T03:55:00.160Z,19.87
2023-01-22T03:57:33.986Z,18.30
2023-01-22T04:00:10.122Z,20.92
2023-01-22T04:02:49.418Z,17.23
2023-01-22T04:05:24.359Z,22.70
2023-01-22T04:07:58.893Z,19.45
2023-01-22T04:10:33.919Z,21.65
2023-01-22T04:13:08.613Z,19.52
2023-01-22T04:15:46.092Z,16.27
2023-01-22T04:18:24.082Z,15.30
2023-01-22T04:21:05.980Z,14.63
2023-01-22T04:23:44.033Z,18.45
2023-01-22T04:26:17.611Z,21.65
2023-01-22T04:28:51.530Z,26.55
2023-01-22T04:31:26.755Z,19.32
2023-01-22T04:34:04.731Z,16.25
2023-01-22T04:36:39.749Z,20.27
2023-01-22T04:39:12.929Z,16.67
2023-01-22T04:41:46.235Z,23.77
2023-01-22T04:44:19.757Z,18.52
2023-01-22T04:46:52.938Z,14.10
2023-01-22T04:49:26.710Z,19.92
2023-01-22T04:52:00.328Z,14.03
2023-01-22T04:54:35.001Z,26.37
2023-01-22T04:57:08.545Z,18.20
2023-01-22T04:59:42.059Z,21.55
2023-01-22T05:02:15.722Z,19.07
2023-01-22T05:04:49.789Z,21.50
2023-01-22T05:07:23.419Z,21.07
2023-01-22T05:09:57.033Z,17.17
2023-01-22T05:12:30.336Z,23.60
2023-01-22T05:15:07.257Z,33.18
2023-01-22T05:17:39.375Z,15.03
2023-01-22T05:20:14.245Z,16.55
2023-01-22T05:22:49.777Z,22.27
2023-01-22T05:25:24.819Z,18.07
2023-01-22T05:27:58.343Z,19.73
2023-01-22T05:33:11.398Z,14.13
2023-01-22T05:35:45.368Z,17.52
2023-01-22T05:38:19.578Z,17.82
2023-01-22T05:40:53.243Z,23.25
2023-01-22T05:43:27.350Z,18.92
2023-01-22T05:46:03.807Z,18.55
2023-01-22T05:48:54.997Z,20.02
2023-01-22T05:51:32.244Z,25.88
2023-01-22T05:54:05.498Z,13.13
2023-01-22T05:56:40.737Z,21.17
2023-01-22T05:59:15.254Z,19.77
2023-01-22T06:01:50.100Z,26.85
2023-01-22T06:04:24.541Z,17.87
2023-01-22T06:06:57.972Z,24.87
2023-01-22T06:09:33.109Z,20.08
2023-01-22T06:12:07.601Z,25.43
2023-01-22T06:14:41.164Z,20.60
2023-01-22T06:17:14.606Z,19.32
2023-01-22T06:19:49.525Z,18.57
2023-01-22T06:22:23.836Z,17.50
2023-01-22T06:24:58.942Z,15.83
2023-01-22T06:27:34.097Z,26.65
2023-01-22T06:30:11.094Z,18.87
2023-01-22T06:32:44.279Z,20.23
2023-01-22T06:35:19.465Z,25.32
2023-01-22T06:37:53.410Z,21.82
2023-01-22T06:40:28.683Z,21.75
2023-01-22T06:43:04.747Z,24.47
2023-01-22T06:45:39.762Z,24.40
2023-01-22T06:48:14.201Z,26.77
2023-01-22T06:50:47.524Z,23.05
2023-01-22T06:53:20.988Z,27.98
2023-01-22T06:55:55.925Z,26.37
2023-01-22T06:58:29.911Z,23.67
2023-01-22T07:01:04.553Z,18.12
2023-01-22T07:03:37.942Z,26.40
2023-01-22T07:06:13.042Z,21.40
2023-01-22T07:08:47.884Z,25.95
2023-01-22T07:11:21.314Z,27.25
2023-01-22T07:13:54.840Z,22.87
2023-01-22T07:16:28.576Z,21.57
2023-01-22T07:19:02.936Z,23.32
2023-01-22T07:21:36.474Z,24.00
2023-01-22T07:24:11.133Z,26.70
2023-01-22T07:26:46.451Z,21.60
2023-01-22T07:29:19.687Z,20.27
2023-01-22T07:31:53.323Z,30.08
2023-01-22T07:34:26.903Z,20.32
2023-01-22T07:37:02.124Z,20.27
2023-01-22T07:39:35.736Z,24.75
2023-01-22T07:42:09.356Z,21.15
2023-01-22T07:44:42.989Z,24.67
2023-01-22T07:47:18.081Z,24.27
2023-01-22T07:49:51.283Z,28.60
2023-01-22T07:52:24.516Z,24.98
2023-01-22T07:54:57.965Z,20.77
2023-01-22T07:57:31.700Z,20.10
2023-01-22T08:00:05.629Z,24.37
2023-01-22T08:02:42.268Z,20.88
2023-01-22T08:05:16.515Z,25.72
2023-01-22T08:07:50.532Z,23.80
2023-01-22T08:10:23.945Z,20.65
2023-01-22T08:12:57.326Z,19.62
2023-01-22T08:15:31.624Z,22.45
2023-01-22T08:18:05.322Z,29.32
2023-01-22T08:20:39.048Z,20.55
2023-01-22T08:23:13.726Z,23.52
2023-01-22T08:25:47.305Z,28.98
2023-01-22T08:28:20.646Z,23.55
2023-01-22T08:30:55.794Z,22.30
2023-01-22T08:33:30.101Z,26.82
2023-01-22T08:36:03.923Z,24.87
2023-01-22T08:38:37.528Z,30.50
2023-01-22T08:41:11.131Z,27.35
2023-01-22T08:43:44.663Z,26.48
2023-01-22T08:46:18.425Z,22.07
2023-01-22T08:48:52.111Z,23.92
2023-01-22T08:51:26.805Z,28.65
2023-01-22T08:54:00.347Z,28.67
2023-01-22T08:56:33.958Z,25.72
2023-01-22T08:59:07.154Z,25.00
2023-01-22T09:01:40.484Z,26.35
2023-01-22T09:04:13.906Z,29.77
2023-01-22T09:06:47.750Z,41.88
2023-01-22T09:09:21.152Z,31.62
2023-01-22T09:11:54.533Z,30.40
2023-01-22T09:14:28.225Z,35.80
2023-01-22T09:17:01.740Z,27.02
2023-01-22T09:19:35.307Z,33.00
2023-01-22T09:22:08.888Z,34.15
2023-01-22T09:24:42.245Z,31.35
2023-01-22T09:27:15.422Z,30.57
2023-01-22T09:29:48.986Z,31.87
2023-01-22T09:32:22.045Z,27.50
2023-01-22T09:34:55.187Z,27.50
2023-01-22T09:37:28.895Z,30.20
2023-01-22T09:40:01.952Z,25.15
2023-01-22T09:42:38.334Z,26.00
2023-01-22T09:45:15.723Z,25.30
2023-01-22T09:47:52.155Z,28.47
2023-01-22T09:50:27.571Z,31.90
2023-01-22T09:53:03.209Z,24.35
2023-01-22T09:55:39.517Z,28.73
2023-01-22T09:58:16.046Z,31.35
2023-01-22T10:00:53.812Z,27.93
2023-01-22T10:06:02.370Z,28.57
2023-01-22T10:08:38.042Z,26.42
2023-01-22T10:11:12.052Z,34.20
2023-01-22T10:13:45.441Z,32.35
2023-01-22T10:16:18.553Z,24.70
2023-01-22T10:18:56.872Z,27.42
2023-01-22T10:21:32.222Z,34.20
2023-01-22T10:24:06.030Z,38.63
2023-01-22T10:26:41.990Z,25.97
2023-01-22T10:29:18.408Z,28.50
2023-01-22T10:31:54.027Z,29.95
2023-01-22T10:34:31.195Z,26.97
2023-01-22T10:37:07.062Z,29.60
2023-01-22T10:39:44.304Z,25.40
2023-01-22T10:42:20.759Z,32.78
2023-01-22T10:44:57.901Z,28.62
2023-01-22T10:47:31.105Z,30.55
2023-01-22T10:50:06.825Z,28.83
2023-01-22T10:55:26.386Z,27.30
2023-01-22T10:58:03.009Z,28.75
2023-01-22T11:00:50.528Z,26.60
2023-01-22T11:03:22.359Z,25.90
2023-01-22T11:05:58.953Z,30.55
2023-01-22T11:08:36.207Z,23.30
2023-01-22T11:11:12.218Z,24.07
2023-01-22T11:13:56.693Z,30.90
2023-01-22T11:16:33.105Z,32.00
2023-01-22T11:19:10.524Z,27.13
2023-01-22T11:21:46.593Z,30.35
2023-01-22T11:24:22.195Z,30.50
2023-01-22T11:27:08.023Z,30.35
2023-01-22T11:30:00.036Z,24.60
2023-01-22T11:32:48.635Z,22.22
2023-01-22T11:35:28.991Z,20.68
2023-01-22T11:38:13.551Z,28.10
2023-01-22T11:40:56.214Z,26.65
2023-01-22T11:43:36.558Z,28.90
2023-01-22T11:46:27.269Z,29.10
2023-01-22T11:49:11.971Z,27.80
2023-01-22T11:51:49.437Z,27.98
2023-01-22T11:54:30.309Z,25.45
2023-01-22T11:57:11.568Z,25.95
2023-01-22T11:59:51.715Z,27.62
2023-01-22T12:02:33.390Z,23.27
2023-01-22T12:05:20.999Z,24.18
2023-01-22T12:11:12.526Z,30.45
2023-01-22T12:14:10.796Z,26.60
2023-01-22T12:16:48.674Z,28.77
2023-01-22T12:19:57.611Z,25.17
2023-01-22T12:22:35.725Z,29.55
2023-01-22T12:25:17.878Z,31.97
2023-01-22T12:27:55.043Z,23.67
2023-01-22T12:30:31.122Z,31.65
2023-01-22T12:33:05.598Z,25.43
2023-01-22T12:35:38.994Z,26.65
2023-01-22T12:38:17.182Z,27.32
2023-01-22T12:41:07.517Z,27.00
2023-01-22T12:43:44.170Z,28.52
2023-01-22T12:46:21.851Z,24.52
2023-01-22T12:51:37.577Z,33.53
2023-01-22T12:54:25.041Z,30.20
2023-01-22T12:57:00.870Z,29.75
2023-01-22T12:59:43.491Z,33.67
2023-01-22T13:02:28.467Z,35.25
2023-01-22T13:05:11.456Z,35.95
2023-01-22T13:07:45.143Z,31.33
2023-01-22T13:10:30.166Z,35.43
2023-01-22T13:13:05.221Z,34.33
2023-01-22T13:15:40.014Z,39.15
2023-01-22T13:18:20.690Z,32.83
2023-01-22T13:20:57.667Z,34.38
2023-01-22T13:23:32.402Z,33.70
2023-01-22T13:26:06.842Z,41.37
2023-01-22T13:28:42.227Z,40.38
2023-01-22T13:31:19.351Z,31.82
2023-01-22T13:34:05.687Z,28.57
2023-01-22T13:36:42.417Z,37.98
2023-01-22T13:39:21.372Z,30.52
2023-01-22T13:41:56.003Z,40.05
2023-01-22T13:44:31.929Z,33.63
2023-01-22T13:47:06.418Z,31.27
2023-01-22T13:49:44.441Z,38.05
2023-01-22T13:52:20.465Z,31.27
2023-01-22T13:54:56.836Z,30.82
2023-01-22T13:57:30.178Z,40.12
2023-01-22T14:00:04.937Z,32.08
2023-01-22T14:02:38.974Z,34.05
2023-01-22T14:05:21.799Z,27.50
2023-01-22T14:08:06.911Z,33.40
2023-01-22T14:10:42.533Z,33.75
2023-01-22T14:13:19.285Z,35.78
2023-01-22T14:15:59.510Z,35.13
2023-01-22T14:18:32.632Z,34.95
2023-01-22T14:21:06.899Z,39.05
2023-01-22T14:23:41.986Z,37.28
2023-01-22T14:26:15.136Z,35.35
2023-01-22T14:28:48.307Z,42.30
2023-01-22T14:31:21.973Z,41.63
2023-01-22T14:33:55.366Z,34.23
2023-01-22T14:36:28.710Z,36.38
2023-01-22T14:39:01.860Z,34.55
2023-01-22T14:41:35.189Z,43.45
2023-01-22T14:44:08.670Z,43.52
2023-01-22T14:46:42.963Z,46.10
2023-01-22T14:49:16.139Z,39.08
2023-01-22T14:51:49.246Z,43.48
2023-01-22T14:54:22.592Z,41.42
2023-01-22T14:56:56.589Z,39.92
2023-01-22T14:59:29.631Z,40.83
2023-01-22T15:02:02.854Z,35.17
2023-01-22T15:04:36.412Z,42.73
2023-01-22T15:07:28.441Z,42.90
2023-01-22T15:10:01.418Z,41.75
2023-01-22T15:12:35.420Z,43.17
2023-01-22T15:15:10.935Z,34.98
2023-01-22T15:17:44.193Z,35.83
2023-01-22T15:20:20.723Z,38.00
2023-01-22T15:22:54.073Z,42.03
2023-01-22T15:25:27.785Z,38.40
2023-01-22T15:28:01.245Z,38.25
2023-01-22T15:30:34.608Z,38.50
2023-01-22T15:33:07.870Z,40.43
2023-01-22T15:35:41.389Z,39.90
2023-01-22T15:38:14.658Z,41.10
2023-01-22T15:40:48.208Z,37.70
2023-01-22T15:43:21.727Z,34.85
2023-01-22T15:45:57.755Z,36.28
2023-01-22T15:48:31.232Z,32.60
2023-01-22T15:51:13.131Z,34.63
2023-01-22T15:53:50.977Z,34.40
2023-01-22T15:58:58.396Z,38.80
2023-01-22T16:01:31.987Z,35.78
2023-01-22T16:04:05.776Z,32.10
2023-01-22T16:06:39.296Z,39.20
2023-01-22T16:09:12.640Z,43.42
2023-01-22T16:11:46.100Z,38.63
2023-01-22T16:14:20.153Z,40.55
2023-01-22T16:16:53.739Z,38.23
2023-01-22T16:19:28.295Z,38.33
2023-01-22T16:22:01.595Z,37.45
2023-01-22T16:24:35.045Z,32.40
2023-01-22T16:27:08.099Z,39.42
2023-01-22T16:29:41.782Z,36.23
2023-01-22T16:32:15.376Z,36.58
2023-01-22T16:34:48.986Z,32.60
2023-01-22T16:37:22.498Z,34.38
2023-01-22T16:39:56.142Z,41.02
2023-01-22T16:42:29.720Z,38.98
2023-01-22T16:45:03.320Z,33.60
2023-01-22T16:47:36.681Z,26.15
2023-01-22T16:50:12.394Z,39.80
2023-01-22T16:52:48.115Z,39.67
2023-01-22T16:55:21.643Z,40.83
2023-01-22T16:57:55.164Z,38.50
2023-01-22T17:00:28.434Z,35.98
2023-01-22T17:03:01.922Z,41.42
2023-01-22T17:05:35.569Z,40.40
2023-01-22T17:08:09.412Z,56.88
2023-01-22T17:10:42.634Z,41.33
2023-01-22T17:13:16.167Z,36.95
2023-01-22T17:15:52.030Z,41.85
2023-01-22T17:18:26.279Z,36.00
2023-01-22T17:21:06.681Z,40.48
2023-01-22T17:23:39.753Z,45.75
2023-01-22T17:26:15.482Z,42.50
2023-01-22T17:28:49.375Z,44.73
2023-01-22T17:31:24.751Z,46.75
2023-01-22T17:33:59.216Z,36.60
2023-01-22T17:36:46.390Z,48.10
2023-01-22T17:39:21.283Z,39.13
2023-01-22T17:41:54.754Z,41.08
2023-01-22T17:44:47.808Z,40.58
2023-01-22T17:47:21.280Z,40.30
2023-01-22T17:50:02.473Z,37.00
2023-01-22T17:52:36.869Z,38.55
2023-01-22T17:55:12.201Z,39.98
2023-01-22T17:57:45.468Z,31.20
2023-01-22T18:00:21.383Z,38.65
2023-01-22T18:02:54.994Z,36.17
2023-01-22T18:05:29.335Z,40.85
2023-01-22T18:08:02.953Z,43.75
2023-01-22T18:10:37.874Z,36.05
2023-01-22T18:13:11.269Z,39.08
2023-01-22T18:15:48.974Z,32.63
2023-01-22T18:20:55.892Z,33.78
2023-01-22T18:23:28.783Z,40.95
2023-01-22T18:26:05.536Z,36.35
2023-01-22T18:28:39.673Z,33.25
2023-01-22T18:31:16.202Z,37.90
2023-01-22T18:33:49.654Z,34.18
2023-01-22T18:36:25.466Z,28.85
2023-01-22T18:39:01.292Z,35.73
2023-01-22T18:41:35.026Z,33.73
2023-01-22T18:44:10.057Z,30.82
2023-01-22T18:46:45.629Z,28.32
2023-01-22T18:49:20.308Z,24.27
2023-01-22T18:51:55.281Z,34.90
2023-01-22T18:54:31.726Z,33.75
2023-01-22T18:57:05.434Z,32.03
2023-01-22T18:59:38.720Z,27.90
2023-01-22T19:02:14.985Z,30.80
2023-01-22T19:04:48.510Z,28.10
2023-01-22T19:07:21.887Z,29.10
2023-01-22T19:09:56.255Z,26.07
2023-01-22T19:12:29.714Z,27.50
2023-01-22T19:15:03.271Z,30.05
2023-01-22T19:17:36.821Z,30.35
2023-01-22T19:20:15.115Z,27.48
2023-01-22T19:22:48.776Z,24.15
2023-01-22T19:25:22.423Z,20.75
2023-01-22T19:27:56.373Z,23.15
2023-01-22T19:30:29.935Z,25.72
2023-01-22T19:33:03.358Z,22.15
2023-01-22T19:35:36.930Z,24.18
2023-01-22T19:38:10.680Z,29.95
2023-01-22T19:40:47.285Z,24.00
2023-01-22T19:43:20.800Z,20.30
2023-01-22T19:45:54.156Z,23.25
2023-01-22T19:48:28.004Z,23.00
2023-01-22T19:51:02.322Z,22.30
2023-01-22T19:53:48.956Z,24.75
2023-01-22T19:56:24.614Z,27.40
2023-01-22T19:59:00.473Z,26.55
2023-01-22T20:01:34.148Z,26.30
2023-01-22T20:04:38.233Z,24.12
2023-01-22T20:07:13.091Z,21.40
2023-01-22T20:09:46.622Z,18.30
2023-01-22T20:12:20.006Z,24.87
2023-01-22T20:14:53.380Z,26.05
2023-01-22T20:17:26.882Z,28.55
2023-01-22T20:20:00.488Z,26.33
2023-01-22T20:22:34.480Z,21.73
2023-01-22T20:25:11.313Z,25.30
2023-01-22T20:27:45.166Z,18.40
2023-01-22T20:30:20.284Z,24.75
2023-01-22T20:32:56.434Z,21.57
2023-01-22T20:35:29.132Z,27.27
2023-01-22T20:38:02.756Z,25.43
2023-01-22T20:40:36.399Z,24.30
2023-01-22T20:43:09.873Z,21.45
2023-01-22T20:45:43.360Z,26.12
2023-01-22T20:48:17.251Z,24.43
2023-01-22T20:50:50.841Z,21.50
2023-01-22T20:53:24.253Z,25.57
2023-01-22T20:56:05.804Z,22.93
2023-01-22T20:58:39.565Z,27.77
2023-01-22T21:01:16.001Z,25.80
2023-01-22T21:03:50.593Z,26.73
2023-01-22T21:06:24.716Z,24.32
2023-01-22T21:08:58.945Z,30.30
2023-01-22T21:11:33.833Z,26.90
2023-01-22T21:14:08.268Z,25.20
2023-01-22T21:16:44.498Z,23.25
2023-01-22T21:19:23.745Z,28.85
2023-01-22T21:21:57.532Z,26.33
2023-01-22T21:24:31.222Z,26.73
2023-01-22T21:27:04.379Z,24.07
2023-01-22T21:29:38.067Z,24.30
2023-01-22T21:32:11.772Z,29.63
2023-01-22T21:34:45.135Z,25.62
2023-01-22T21:37:18.942Z,28.00
2023-01-22T21:39:52.895Z,26.17
2023-01-22T21:42:43.536Z,25.85
2023-01-22T21:45:34.385Z,26.20
2023-01-22T21:48:09.906Z,19.00
2023-01-22T21:50:43.899Z,24.92
2023-01-22T21:53:17.365Z,30.52
2023-01-22T21:55:55.049Z,31.02
2023-01-22T22:01:06.913Z,30.92
2023-01-22T22:03:40.604Z,33.58
2023-01-22T22:06:15.374Z,38.10
2023-01-22T22:08:48.940Z,33.15
2023-01-22T22:11:22.197Z,28.50
2023-01-22T22:13:56.706Z,29.75
2023-01-22T22:16:30.321Z,31.93
2023-01-22T22:19:03.820Z,34.08
2023-01-22T22:21:37.902Z,34.92
2023-01-22T22:24:12.484Z,36.65
2023-01-22T22:26:45.874Z,35.00
2023-01-22T22:29:19.739Z,43.00
2023-01-22T22:31:53.329Z,30.37
2023-01-22T22:34:26.806Z,33.85
2023-01-22T22:37:00.327Z,37.50
2023-01-22T22:39:33.784Z,39.10
2023-01-22T22:42:07.356Z,41.83
2023-01-22T22:44:40.882Z,34.25
2023-01-22T22:47:14.194Z,37.95
2023-01-22T22:49:47.905Z,42.65
2023-01-22T22:52:21.943Z,28.77
2023-01-22T22:54:55.348Z,34.40
2023-01-22T22:57:28.675Z,38.63
2023-01-22T23:00:03.727Z,33.23
2023-01-22T23:02:37.207Z,50.17
2023-01-22T23:05:12.012Z,32.90
2023-01-22T23:07:45.695Z,39.33
2023-01-22T23:10:30.212Z,39.08
2023-01-22T23:13:04.643Z,37.28
2023-01-22T23:15:38.247Z,31.48
2023-01-22T23:18:12.068Z,41.65
2023-01-22T23:20:45.837Z,29.37
2023-01-22T23:23:19.491Z,32.45
2023-01-22T23:25:52.704Z,39.13
2023-01-22T23:28:26.280Z,33.23
2023-01-22T23:31:01.199Z,30.05
2023-01-22T23:33:35.071Z,32.95
2023-01-22T23:36:11.708Z,34.83
2023-01-22T23:38:45.743Z,33.42
2023-01-22T23:41:20.945Z,32.98
2023-01-22T23:43:54.397Z,32.42
2023-01-22T23:46:30.997Z,34.20
2023-01-22T23:49:05.872Z,32.35
2023-01-22T23:51:41.400Z,27.73
2023-01-22T23:54:15.191Z,31.48
2023-01-22T23:56:48.819Z,28.87
2023-01-22T23:59:23.681Z,35.17
